createdAt,value
2019-05-21T00:02:26.756Z,3.70
2019-05-21T00:04:56.848Z,5.08
2019-05-21T00:07:26.848Z,4.85
2019-05-21T00:10:07.039Z,3.62
2019-05-21T00:12:37.103Z,4.37
2019-05-21T00:15:07.396Z,3.85
2019-05-21T00:17:37.318Z,4.08
2019-05-21T00:23:11.954Z,6.60
2019-05-21T00:25:42.054Z,7.80
2019-05-21T00:28:35.526Z,3.47
2019-05-21T00:31:43.178Z,4.55
2019-05-21T00:34:49.363Z,3.65
2019-05-21T00:37:55.350Z,3.35
2019-05-21T00:41:01.344Z,5.40
2019-05-21T00:43:43.346Z,4.37
2019-05-21T00:46:13.450Z,4.17
2019-05-21T00:48:43.521Z,6.87
2019-05-21T00:51:13.570Z,5.15
2019-05-21T00:53:44.744Z,9.33
2019-05-21T00:56:14.852Z,7.08
2019-05-21T00:58:44.953Z,7.60
2019-05-21T01:01:15.024Z,5.15
2019-05-21T01:03:45.149Z,4.80
2019-05-21T01:06:15.146Z,5.80
2019-05-21T01:08:47.208Z,8.25
2019-05-21T01:11:21.833Z,5.55
2019-05-21T01:13:51.861Z,6.55
2019-05-21T01:16:21.926Z,8.63
2019-05-21T01:18:51.916Z,6.85
2019-05-21T01:21:21.938Z,5.62
2019-05-21T01:23:51.978Z,10.75
2019-05-21T01:26:21.970Z,6.60
2019-05-21T01:28:52.073Z,8.18
2019-05-21T01:31:36.607Z,10.23
2019-05-21T01:34:06.722Z,6.37
2019-05-21T01:36:36.816Z,7.22
2019-05-21T01:39:08.654Z,7.40
2019-05-21T01:44:11.544Z,9.80
2019-05-21T01:46:41.779Z,9.83
2019-05-21T01:49:11.895Z,10.05
2019-05-21T01:51:41.971Z,9.08
2019-05-21T01:54:16.152Z,8.60
2019-05-21T01:56:50.443Z,9.95
2019-05-21T01:59:20.562Z,11.15
2019-05-21T02:01:50.746Z,10.93
2019-05-21T02:04:20.883Z,9.00
2019-05-21T02:06:51.178Z,12.40
2019-05-21T02:09:21.250Z,8.98
2019-05-21T02:11:53.219Z,8.75
2019-05-21T02:14:34.667Z,8.03
2019-05-21T02:17:04.834Z,8.10
2019-05-21T02:19:35.863Z,10.90
2019-05-21T02:22:05.963Z,8.90
2019-05-21T02:24:35.972Z,15.83
2019-05-21T02:27:06.084Z,8.05
2019-05-21T02:29:37.078Z,12.10
2019-05-21T02:32:07.042Z,9.03
2019-05-21T02:34:37.077Z,10.10
2019-05-21T02:37:07.140Z,9.03
2019-05-21T02:39:37.437Z,9.28
2019-05-21T02:42:07.535Z,11.83
2019-05-21T02:44:37.604Z,9.35
2019-05-21T02:47:07.705Z,9.78
2019-05-21T02:49:37.637Z,9.15
2019-05-21T02:52:07.734Z,10.32
2019-05-21T02:54:41.572Z,9.25
2019-05-21T02:57:09.461Z,16.82
2019-05-21T02:59:40.530Z,8.88
2019-05-21T03:02:18.047Z,10.15
2019-05-21T03:04:48.051Z,9.53
2019-05-21T03:07:18.194Z,9.10
2019-05-21T03:09:48.790Z,11.10
2019-05-21T03:12:19.291Z,9.58
2019-05-21T03:14:49.350Z,17.32
2019-05-21T03:17:20.473Z,12.60
2019-05-21T03:19:56.665Z,11.78
2019-05-21T03:22:26.865Z,10.75
2019-05-21T03:25:02.148Z,10.80
2019-05-21T03:29:59.252Z,9.88
2019-05-21T03:32:29.279Z,11.18
2019-05-21T03:34:59.327Z,13.72
2019-05-21T03:37:29.479Z,12.90
2019-05-21T03:39:59.552Z,13.28
2019-05-21T03:42:29.653Z,11.80
2019-05-21T03:45:01.143Z,10.45
2019-05-21T03:47:31.343Z,11.88
2019-05-21T03:50:01.415Z,12.47
2019-05-21T03:52:32.526Z,10.53
2019-05-21T03:55:03.262Z,10.82
2019-05-21T03:57:33.454Z,9.13
2019-05-21T04:00:05.522Z,13.32
2019-05-21T04:02:35.520Z,10.85
2019-05-21T04:05:06.312Z,13.22
2019-05-21T04:07:36.410Z,12.20
2019-05-21T04:10:17.271Z,9.23
2019-05-21T04:12:49.005Z,8.85
2019-05-21T04:15:20.609Z,9.05
2019-05-21T04:18:05.586Z,10.97
2019-05-21T04:20:36.950Z,13.00
2019-05-21T04:23:07.018Z,11.43
2019-05-21T04:25:37.135Z,11.15
2019-05-21T04:28:18.668Z,12.07
2019-05-21T04:30:49.196Z,11.70
2019-05-21T04:33:19.125Z,8.75
2019-05-21T04:35:54.842Z,8.63
2019-05-21T04:38:24.887Z,8.53
2019-05-21T04:40:54.971Z,7.70
2019-05-21T04:43:25.157Z,9.05
2019-05-21T04:45:55.280Z,8.83
2019-05-21T04:48:25.362Z,10.13
2019-05-21T04:50:56.304Z,9.00
2019-05-21T04:53:32.362Z,8.30
2019-05-21T04:56:03.539Z,10.15
2019-05-21T04:58:48.201Z,8.70
2019-05-21T05:01:18.359Z,9.03
2019-05-21T05:03:49.149Z,9.80
2019-05-21T05:06:19.212Z,13.08
2019-05-21T05:08:49.225Z,11.50
2019-05-21T05:11:19.366Z,15.53
2019-05-21T05:13:50.577Z,10.88
2019-05-21T05:16:20.806Z,10.63
2019-05-21T05:19:00.858Z,12.78
2019-05-21T05:24:37.014Z,11.43
2019-05-21T05:27:13.737Z,11.35
2019-05-21T05:29:47.452Z,11.22
2019-05-21T05:32:21.313Z,13.72
2019-05-21T05:34:52.575Z,11.63
2019-05-21T05:37:22.753Z,12.43
2019-05-21T05:39:53.016Z,14.35
2019-05-21T05:42:32.095Z,14.53
2019-05-21T05:45:02.371Z,14.05
2019-05-21T05:47:32.481Z,12.60
2019-05-21T05:50:04.616Z,16.10
2019-05-21T05:52:36.216Z,17.65
2019-05-21T05:55:07.704Z,16.10
2019-05-21T05:57:38.449Z,13.68
2019-05-21T06:00:11.043Z,12.45
2019-05-21T06:02:44.210Z,13.62
2019-05-21T06:05:15.086Z,14.90
2019-05-21T06:07:58.782Z,15.75
2019-05-21T06:10:16.982Z,14.85
2019-05-21T06:12:47.061Z,21.65
2019-05-21T06:15:17.674Z,13.53
2019-05-21T06:17:47.761Z,19.17
2019-05-21T06:20:18.998Z,15.75
2019-05-21T06:22:49.089Z,15.20
2019-05-21T06:25:19.600Z,16.48
2019-05-21T06:27:50.981Z,16.07
2019-05-21T06:30:21.019Z,15.28
2019-05-21T06:32:51.157Z,15.45
2019-05-21T06:35:21.187Z,14.73
2019-05-21T06:37:51.245Z,17.45
2019-05-21T06:40:21.361Z,17.98
2019-05-21T06:42:51.495Z,17.37
2019-05-21T06:45:23.047Z,18.62
2019-05-21T06:47:53.248Z,19.15
2019-05-21T06:50:23.341Z,15.03
2019-05-21T06:52:53.518Z,14.65
2019-05-21T06:55:23.643Z,14.80
2019-05-21T06:57:53.799Z,18.15
2019-05-21T07:00:24.113Z,15.38
2019-05-21T07:02:54.286Z,17.67
2019-05-21T07:05:25.540Z,17.05
2019-05-21T07:07:55.580Z,18.75
2019-05-21T07:10:26.247Z,15.40
2019-05-21T07:12:56.331Z,18.98
2019-05-21T07:15:26.488Z,18.50
2019-05-21T07:17:57.487Z,22.40
2019-05-21T07:20:27.607Z,21.65
2019-05-21T07:22:59.021Z,18.02
2019-05-21T07:25:29.210Z,16.97
2019-05-21T07:27:59.369Z,17.85
2019-05-21T07:30:29.544Z,23.55
2019-05-21T07:32:59.673Z,20.25
2019-05-21T07:35:29.803Z,17.00
2019-05-21T07:37:59.954Z,18.02
2019-05-21T07:40:31.349Z,20.52
2019-05-21T07:43:05.319Z,23.70
2019-05-21T07:45:35.913Z,18.35
2019-05-21T07:48:06.075Z,23.45
2019-05-21T07:50:36.259Z,21.17
2019-05-21T07:53:06.377Z,21.40
2019-05-21T07:55:36.486Z,25.77
2019-05-21T07:58:06.613Z,25.37
2019-05-21T08:00:36.706Z,24.30
2019-05-21T08:03:08.988Z,25.17
2019-05-21T08:05:39.121Z,22.37
2019-05-21T08:08:09.330Z,25.88
2019-05-21T08:10:40.495Z,22.82
2019-05-21T08:13:10.574Z,26.27
2019-05-21T08:15:40.687Z,22.60
2019-05-21T08:18:10.808Z,21.40
2019-05-21T08:20:40.898Z,21.20
2019-05-21T08:23:11.016Z,19.62
2019-05-21T08:25:41.146Z,23.42
2019-05-21T08:28:11.154Z,23.22
2019-05-21T08:30:41.183Z,23.90
2019-05-21T08:33:11.324Z,25.20
2019-05-21T08:35:41.275Z,23.67
2019-05-21T08:38:11.410Z,24.43
2019-05-21T08:40:41.486Z,27.02
2019-05-21T08:43:11.524Z,13.60
2019-05-21T08:45:41.535Z,12.93
2019-05-21T08:48:11.591Z,12.53
2019-05-21T08:50:41.970Z,8.80
2019-05-21T08:53:12.123Z,10.20
2019-05-21T08:55:43.162Z,10.68
2019-05-21T08:58:13.206Z,12.63
2019-05-21T09:00:43.338Z,14.30
2019-05-21T09:03:13.513Z,12.70
2019-05-21T09:05:43.594Z,10.65
2019-05-21T09:08:13.794Z,14.53
2019-05-21T09:10:43.857Z,12.23
2019-05-21T09:13:17.374Z,12.30
2019-05-21T09:15:45.832Z,8.45
2019-05-21T09:18:15.907Z,9.03
2019-05-21T09:20:46.093Z,11.55
2019-05-21T09:23:16.246Z,10.58
2019-05-21T09:25:49.448Z,10.90
2019-05-21T09:28:18.027Z,13.95
2019-05-21T09:30:48.147Z,14.23
2019-05-21T09:33:18.258Z,12.70
2019-05-21T09:35:48.370Z,15.00
2019-05-21T09:38:18.506Z,14.68
2019-05-21T09:40:48.577Z,11.65
2019-05-21T09:43:18.627Z,17.02
2019-05-21T09:45:48.698Z,14.95
2019-05-21T09:48:18.822Z,13.65
2019-05-21T09:50:48.759Z,13.00
2019-05-21T09:53:18.798Z,12.65
2019-05-21T09:55:48.849Z,14.38
2019-05-21T09:58:20.630Z,9.38
2019-05-21T10:01:09.521Z,9.35
2019-05-21T10:03:46.961Z,10.82
2019-05-21T10:06:17.181Z,11.85
2019-05-21T10:08:51.574Z,10.15
2019-05-21T10:11:22.205Z,11.90
2019-05-21T10:13:54.563Z,14.23
2019-05-21T10:16:26.160Z,10.03
2019-05-21T10:18:58.761Z,14.28
2019-05-21T10:21:28.888Z,11.90
2019-05-21T10:23:58.827Z,11.90
2019-05-21T10:26:29.013Z,12.53
2019-05-21T10:28:59.172Z,13.20
2019-05-21T10:31:30.478Z,12.65
2019-05-21T10:34:00.542Z,13.65
2019-05-21T10:36:30.574Z,14.15
2019-05-21T10:39:00.711Z,12.47
2019-05-21T10:41:32.407Z,15.40
2019-05-21T10:44:03.973Z,15.10
2019-05-21T10:46:34.270Z,14.20
2019-05-21T10:49:05.083Z,13.25
2019-05-21T10:51:35.174Z,13.20
2019-05-21T10:54:06.371Z,13.30
2019-05-21T10:56:47.239Z,11.43
2019-05-21T10:59:08.198Z,12.70
2019-05-21T11:01:46.026Z,12.60
2019-05-21T11:04:20.187Z,13.55
2019-05-21T11:06:50.514Z,15.45
2019-05-21T11:09:21.663Z,9.95
2019-05-21T11:11:51.771Z,11.22
2019-05-21T11:14:21.883Z,12.25
2019-05-21T11:16:51.899Z,9.28
2019-05-21T11:19:21.992Z,11.10
2019-05-21T11:21:52.040Z,11.95
2019-05-21T11:24:21.976Z,10.95
2019-05-21T11:26:52.083Z,8.98
2019-05-21T11:29:22.140Z,10.28
2019-05-21T11:31:56.888Z,9.08
2019-05-21T11:34:23.938Z,10.65
2019-05-21T11:36:54.167Z,6.35
2019-05-21T11:39:24.283Z,7.55
2019-05-21T11:41:54.378Z,11.08
2019-05-21T11:44:25.569Z,10.00
2019-05-21T11:46:55.714Z,9.70
2019-05-21T11:49:25.801Z,11.63
2019-05-21T11:51:55.906Z,9.63
2019-05-21T11:54:27.186Z,10.78
2019-05-21T11:56:57.321Z,9.83
2019-05-21T11:59:27.514Z,9.53
2019-05-21T12:02:00.087Z,9.48
2019-05-21T12:04:30.073Z,9.85
2019-05-21T12:07:03.326Z,8.40
2019-05-21T12:09:31.874Z,8.80
2019-05-21T12:12:01.970Z,8.28
2019-05-21T12:14:32.070Z,10.90
2019-05-21T12:17:02.998Z,10.82
2019-05-21T12:19:33.146Z,12.47
2019-05-21T12:22:03.215Z,10.72
2019-05-21T12:24:33.255Z,11.90
2019-05-21T12:27:03.933Z,13.10
2019-05-21T12:29:34.492Z,12.60
2019-05-21T12:32:05.266Z,13.22
2019-05-21T12:34:38.795Z,13.35
2019-05-21T12:37:07.999Z,14.00
2019-05-21T12:39:38.198Z,14.33
2019-05-21T12:42:08.314Z,13.48
2019-05-21T12:44:41.194Z,14.07
2019-05-21T12:47:11.356Z,13.83
2019-05-21T12:49:41.484Z,15.13
2019-05-21T12:52:11.570Z,14.58
2019-05-21T12:54:42.632Z,14.70
2019-05-21T12:57:12.720Z,14.80
2019-05-21T12:59:43.906Z,13.90
2019-05-21T13:02:14.037Z,14.45
2019-05-21T13:04:46.963Z,14.65
2019-05-21T13:07:17.103Z,15.00
2019-05-21T13:09:47.231Z,13.55
2019-05-21T13:12:17.255Z,14.05
2019-05-21T13:14:47.294Z,18.57
2019-05-21T13:17:17.515Z,15.45
2019-05-21T13:19:47.628Z,14.98
2019-05-21T13:22:17.747Z,16.25
2019-05-21T13:24:47.742Z,14.68
2019-05-21T13:27:17.889Z,15.38
2019-05-21T13:29:48.058Z,15.32
2019-05-21T13:32:18.202Z,17.05
2019-05-21T13:34:48.314Z,15.48
2019-05-21T13:37:18.428Z,16.23
2019-05-21T13:39:50.471Z,13.28
2019-05-21T13:42:20.263Z,16.07
2019-05-21T13:44:50.383Z,14.65
2019-05-21T13:47:20.580Z,12.45
2019-05-21T13:49:50.672Z,12.63
2019-05-21T13:52:20.714Z,14.78
2019-05-21T13:54:50.736Z,18.67
2019-05-21T13:57:20.884Z,14.80
2019-05-21T13:59:51.048Z,13.83
2019-05-21T14:02:21.160Z,14.98
2019-05-21T14:04:51.356Z,14.87
2019-05-21T14:07:21.394Z,12.20
2019-05-21T14:10:12.533Z,11.22
2019-05-21T14:12:23.455Z,11.95
2019-05-21T14:14:53.633Z,13.43
2019-05-21T14:17:23.765Z,11.93
2019-05-21T14:19:53.900Z,14.63
2019-05-21T14:22:24.026Z,12.03
2019-05-21T14:24:54.069Z,11.22
2019-05-21T14:27:24.154Z,11.90
2019-05-21T14:29:54.229Z,11.57
2019-05-21T14:32:24.322Z,14.68
2019-05-21T14:35:01.354Z,10.75
2019-05-21T14:37:26.152Z,12.58
2019-05-21T14:39:56.234Z,10.28
2019-05-21T14:42:26.350Z,14.20
2019-05-21T14:44:56.364Z,15.03
2019-05-21T14:47:27.975Z,16.87
2019-05-21T14:49:58.050Z,20.72
2019-05-21T14:52:28.181Z,19.15
2019-05-21T14:54:58.274Z,21.60
2019-05-21T14:57:28.408Z,21.65
2019-05-21T14:59:58.490Z,20.68
2019-05-21T15:02:29.544Z,24.72
2019-05-21T15:04:59.574Z,22.77
2019-05-21T15:07:29.655Z,22.32
2019-05-21T15:09:59.703Z,23.50
2019-05-21T15:12:29.861Z,25.80
2019-05-21T15:14:59.946Z,24.18
2019-05-21T15:17:30.031Z,26.97
2019-05-21T15:20:01.803Z,22.27
2019-05-21T15:22:31.890Z,22.13
2019-05-21T15:25:02.107Z,22.62
2019-05-21T15:27:32.183Z,21.27
2019-05-21T15:30:03.575Z,20.92
2019-05-21T15:32:35.555Z,22.62
2019-05-21T15:35:06.511Z,21.23
2019-05-21T15:37:38.251Z,20.90
2019-05-21T15:40:08.815Z,20.23
2019-05-21T15:42:38.835Z,21.07
2019-05-21T15:45:10.255Z,21.68
2019-05-21T15:47:41.433Z,21.35
2019-05-21T15:50:11.643Z,19.35
2019-05-21T15:52:41.636Z,21.15
2019-05-21T15:55:11.857Z,20.25
2019-05-21T15:57:42.059Z,25.62
2019-05-21T16:00:15.433Z,20.97
2019-05-21T16:02:45.669Z,24.05
2019-05-21T16:05:17.445Z,20.12
2019-05-21T16:07:49.107Z,22.30
2019-05-21T16:10:19.194Z,20.35
2019-05-21T16:12:54.016Z,23.27
2019-05-21T16:15:22.176Z,21.17
2019-05-21T16:17:52.487Z,20.45
2019-05-21T16:20:25.431Z,20.88
2019-05-21T16:22:58.267Z,21.90
2019-05-21T16:25:29.334Z,22.20
2019-05-21T16:27:59.476Z,20.23
2019-05-21T16:30:29.562Z,20.27
2019-05-21T16:32:59.690Z,20.02
2019-05-21T16:35:29.986Z,23.20
2019-05-21T16:38:00.046Z,22.73
2019-05-21T16:40:34.774Z,26.50
2019-05-21T16:43:06.053Z,21.02
2019-05-21T16:45:39.078Z,21.02
2019-05-21T16:48:10.192Z,22.30
2019-05-21T16:50:44.060Z,21.10
2019-05-21T16:53:14.142Z,22.02
2019-05-21T16:55:48.523Z,21.85
2019-05-21T16:58:20.287Z,19.95
2019-05-21T17:00:55.675Z,20.70
2019-05-21T17:03:26.885Z,22.62
2019-05-21T17:05:57.033Z,21.27
2019-05-21T17:08:28.623Z,19.42
2019-05-21T17:10:58.638Z,20.57
2019-05-21T17:13:28.650Z,18.70
2019-05-21T17:16:00.142Z,18.27
2019-05-21T17:18:31.692Z,19.12
2019-05-21T17:21:03.439Z,19.45
2019-05-21T17:23:35.274Z,18.30
2019-05-21T17:26:06.464Z,18.17
2019-05-21T17:28:41.486Z,19.23
2019-05-21T17:31:13.090Z,19.50
2019-05-21T17:33:43.144Z,18.62
2019-05-21T17:36:14.074Z,19.30
2019-05-21T17:38:44.606Z,19.75
2019-05-21T17:41:15.756Z,19.80
2019-05-21T17:43:48.805Z,17.42
2019-05-21T17:46:19.442Z,23.12
2019-05-21T17:48:49.475Z,20.72
2019-05-21T17:51:20.121Z,18.12
2019-05-21T17:53:50.160Z,19.67
2019-05-21T17:56:20.256Z,19.67
2019-05-21T17:58:50.404Z,20.77
2019-05-21T18:01:21.182Z,18.12
2019-05-21T18:03:51.611Z,23.32
2019-05-21T18:06:21.724Z,17.42
2019-05-21T18:08:52.160Z,19.27
2019-05-21T18:11:23.359Z,18.98
2019-05-21T18:13:58.502Z,19.75
2019-05-21T18:16:30.363Z,18.37
2019-05-21T18:19:08.580Z,20.12
2019-05-21T18:21:40.839Z,17.57
2019-05-21T18:24:11.738Z,20.85
2019-05-21T18:26:41.878Z,19.27
2019-05-21T18:29:12.041Z,20.45
2019-05-21T18:31:42.265Z,19.67
2019-05-21T18:34:12.683Z,22.05
2019-05-21T18:36:43.134Z,21.42
2019-05-21T18:39:13.151Z,18.80
2019-05-21T18:41:43.434Z,19.25
2019-05-21T18:44:13.593Z,19.10
2019-05-21T18:46:45.224Z,18.65
2019-05-21T18:49:15.438Z,18.98
2019-05-21T18:51:46.166Z,18.77
2019-05-21T18:54:16.467Z,21.10
2019-05-21T18:56:46.651Z,22.35
2019-05-21T18:59:18.324Z,20.23
2019-05-21T19:01:49.574Z,21.85
2019-05-21T19:04:21.302Z,20.90
2019-05-21T19:06:51.548Z,21.85
2019-05-21T19:09:21.704Z,20.50
2019-05-21T19:11:51.855Z,21.15
2019-05-21T19:14:21.985Z,21.80
2019-05-21T19:16:52.766Z,22.90
2019-05-21T19:19:37.179Z,24.92
2019-05-21T19:22:09.264Z,25.37
2019-05-21T19:24:44.434Z,24.30
2019-05-21T19:27:23.751Z,23.70
2019-05-21T19:29:59.154Z,23.87
2019-05-21T19:32:36.820Z,27.95
2019-05-21T19:35:09.322Z,26.90
2019-05-21T19:37:41.005Z,24.60
2019-05-21T19:40:22.844Z,24.30
2019-05-21T19:42:55.414Z,27.75
2019-05-21T19:45:27.162Z,27.02
2019-05-21T19:47:57.290Z,27.93
2019-05-21T19:50:32.843Z,28.32
2019-05-21T19:53:03.796Z,28.00
2019-05-21T19:55:36.352Z,27.27
2019-05-21T19:58:09.625Z,28.60
2019-05-21T20:00:44.504Z,27.50
2019-05-21T20:03:17.103Z,28.60
2019-05-21T20:05:52.665Z,28.07
2019-05-21T20:08:28.442Z,28.57
2019-05-21T20:11:00.187Z,30.68
2019-05-21T20:13:32.465Z,29.63
2019-05-21T20:16:03.369Z,29.37
2019-05-21T20:18:37.445Z,27.62
2019-05-21T20:21:08.848Z,28.10
2019-05-21T20:23:40.647Z,29.20
2019-05-21T20:26:16.574Z,30.23
2019-05-21T20:28:50.214Z,30.15
2019-05-21T20:31:20.961Z,29.40
2019-05-21T20:33:53.334Z,29.23
2019-05-21T20:36:23.475Z,28.20
2019-05-21T20:38:55.342Z,29.18
2019-05-21T20:41:27.216Z,28.00
2019-05-21T20:43:59.538Z,30.85
2019-05-21T20:46:35.182Z,31.82
2019-05-21T20:49:05.933Z,30.30
2019-05-21T20:51:37.488Z,34.20
2019-05-21T20:54:12.047Z,34.92
2019-05-21T20:56:43.826Z,31.17
2019-05-21T20:59:19.828Z,33.58
2019-05-21T21:01:51.855Z,30.15
2019-05-21T21:04:27.223Z,34.00
2019-05-21T21:06:59.460Z,34.60
2019-05-21T21:09:30.159Z,31.82
2019-05-21T21:12:00.317Z,36.93
2019-05-21T21:14:31.972Z,34.73
2019-05-21T21:17:02.653Z,36.88
2019-05-21T21:19:32.810Z,37.67
2019-05-21T21:22:03.024Z,38.45
2019-05-21T21:24:33.335Z,33.35
2019-05-21T21:27:04.789Z,36.88
2019-05-21T21:29:34.889Z,37.08
2019-05-21T21:32:07.338Z,43.70
2019-05-21T21:34:37.417Z,37.78
2019-05-21T21:37:09.040Z,36.98
2019-05-21T21:39:40.636Z,40.52
2019-05-21T21:42:11.431Z,36.28
2019-05-21T21:44:42.014Z,38.33
2019-05-21T21:47:16.152Z,35.83
2019-05-21T21:49:46.627Z,37.53
2019-05-21T21:52:16.807Z,40.23
2019-05-21T21:54:47.186Z,39.63
2019-05-21T21:57:19.951Z,39.42
2019-05-21T21:59:50.594Z,40.58
2019-05-21T22:02:32.626Z,38.00
2019-05-21T22:07:38.531Z,37.83
2019-05-21T22:10:08.689Z,39.35
2019-05-21T22:12:38.812Z,41.75
2019-05-21T22:15:09.267Z,42.43
2019-05-21T22:17:39.455Z,42.17
2019-05-21T22:20:10.447Z,41.63
2019-05-21T22:22:40.571Z,43.98
2019-05-21T22:25:11.134Z,46.73
2019-05-21T22:27:42.482Z,40.43
2019-05-21T22:30:13.506Z,45.40
2019-05-21T22:32:43.609Z,44.53
2019-05-21T22:35:14.674Z,41.23
2019-05-21T22:37:45.750Z,43.17
2019-05-21T22:40:18.410Z,43.70
2019-05-21T22:42:51.817Z,50.88
2019-05-21T22:45:24.026Z,43.52
2019-05-21T22:47:53.978Z,43.80
2019-05-21T22:50:27.091Z,48.15
2019-05-21T22:52:59.995Z,44.70
2019-05-21T22:55:33.127Z,45.63
2019-05-21T22:58:08.014Z,45.60
2019-05-21T23:00:41.494Z,47.85
2019-05-21T23:03:30.408Z,44.98
2019-05-21T23:06:03.160Z,44.15
2019-05-21T23:08:45.337Z,46.02
2019-05-21T23:11:23.376Z,45.15
2019-05-21T23:13:56.982Z,42.60
2019-05-21T23:16:36.000Z,44.67
2019-05-21T23:19:26.380Z,43.35
2019-05-21T23:22:09.622Z,48.15
2019-05-21T23:24:41.579Z,45.12
2019-05-21T23:27:15.620Z,44.67
2019-05-21T23:32:24.829Z,43.38
2019-05-21T23:34:59.715Z,44.88
2019-05-21T23:37:45.786Z,43.52
2019-05-21T23:40:22.883Z,45.17
2019-05-21T23:42:58.013Z,47.55
2019-05-21T23:45:33.946Z,46.42
2019-05-21T23:50:45.770Z,45.20
2019-05-21T23:53:31.258Z,51.58
2019-05-21T23:56:07.916Z,45.10
2019-05-21T23:58:42.886Z,45.10
